Terminal Aerodrome Forecast
Issued by NWS

Home | Current Version | Previous Version | Text Only | Print | Product List | Glossary On
Versions: 1 2 3 4 5 6 7 8 9 10 11 12 13 14 15
000
FTAK31 PAJN 172339
TAFAWG
TAF
PAWG 172339Z 1800/1824 08007KT 6SM -SHRA FEW005 SCT015 OVC035
     FM180300 15009KT 3SM -SHRA BR BKN010 OVC025
     FM182000 12009KT P6SM -SHRA SCT015 OVC025
      AMD LTD TO CLD VIS AND WIND 1806/1815=

USA.gov is the U.S. government's official web portal to all federal, state and local government web resources and services.